createdAt,value
2022-11-26T00:00:51.624Z,4.80
2022-11-26T00:03:20.232Z,4.00
2022-11-26T00:05:52.262Z,5.53
2022-11-26T00:08:23.444Z,5.43
2022-11-26T00:10:53.374Z,5.03
2022-11-26T00:13:23.541Z,4.50
2022-11-26T00:15:52.644Z,5.27
2022-11-26T00:18:23.562Z,5.27
2022-11-26T00:20:56.511Z,4.97
2022-11-26T00:23:26.714Z,5.67
2022-11-26T00:25:57.011Z,5.07
2022-11-26T00:28:30.737Z,6.03
2022-11-26T00:31:00.678Z,5.73
2022-11-26T00:33:30.374Z,4.30
2022-11-26T00:36:02.609Z,4.67
2022-11-26T00:38:31.410Z,5.63
2022-11-26T00:40:59.686Z,5.30
2022-11-26T00:43:27.801Z,4.83
2022-11-26T00:45:55.951Z,5.90
2022-11-26T00:48:24.084Z,5.13
2022-11-26T00:50:53.046Z,6.27
2022-11-26T00:53:24.084Z,5.27
2022-11-26T00:55:52.708Z,5.20
2022-11-26T00:58:25.823Z,5.03
2022-11-26T01:00:55.134Z,4.80
2022-11-26T01:03:23.639Z,4.53
2022-11-26T01:05:53.241Z,4.70
2022-11-26T01:08:29.254Z,4.13
2022-11-26T01:10:58.149Z,4.57
2022-11-26T01:13:26.586Z,3.30
2022-11-26T01:15:55.430Z,3.90
2022-11-26T01:18:24.719Z,3.73
2022-11-26T01:20:53.197Z,3.97
2022-11-26T01:23:23.520Z,5.00
2022-11-26T01:25:51.599Z,5.10
2022-11-26T01:28:20.684Z,5.03
2022-11-26T01:30:49.086Z,4.80
2022-11-26T01:33:17.120Z,5.83
2022-11-26T01:35:45.271Z,4.97
2022-11-26T01:38:15.248Z,4.90
2022-11-26T01:41:04.665Z,3.83
2022-11-26T01:43:34.927Z,4.67
2022-11-26T01:46:03.187Z,4.73
2022-11-26T01:48:33.574Z,4.50
2022-11-26T01:51:07.202Z,4.90
2022-11-26T01:53:42.598Z,4.40
2022-11-26T01:56:20.995Z,5.50
2022-11-26T01:58:51.075Z,5.00
2022-11-26T02:01:19.801Z,4.90
2022-11-26T02:03:54.317Z,5.23
2022-11-26T02:06:25.520Z,5.10
2022-11-26T02:08:54.075Z,5.17
2022-11-26T02:11:25.309Z,6.53
2022-11-26T02:13:55.939Z,5.50
2022-11-26T02:16:38.894Z,5.37
2022-11-26T02:19:24.215Z,4.50
2022-11-26T02:21:56.754Z,5.77
2022-11-26T02:24:37.387Z,7.10
2022-11-26T02:27:41.604Z,6.40
2022-11-26T02:30:12.550Z,6.40
2022-11-26T02:32:48.617Z,5.53
2022-11-26T02:35:21.505Z,6.67
2022-11-26T02:37:53.382Z,6.60
2022-11-26T02:40:24.932Z,6.33
2022-11-26T02:42:53.217Z,6.17
2022-11-26T02:45:27.718Z,5.60
2022-11-26T02:47:58.841Z,5.80
2022-11-26T02:50:29.069Z,6.23
2022-11-26T02:52:58.615Z,6.00
2022-11-26T02:55:29.232Z,5.40
2022-11-26T02:57:57.840Z,5.87
2022-11-26T03:00:27.478Z,5.53
2022-11-26T03:03:01.734Z,6.00
2022-11-26T03:05:33.214Z,5.13
2022-11-26T03:08:02.600Z,6.30
2022-11-26T03:10:31.322Z,5.53
2022-11-26T03:12:59.820Z,5.40
2022-11-26T03:15:29.546Z,5.00
2022-11-26T03:18:00.705Z,4.77
2022-11-26T03:20:28.874Z,6.10
2022-11-26T03:22:57.142Z,5.50
2022-11-26T03:25:25.314Z,5.70
2022-11-26T03:27:54.002Z,5.30
2022-11-26T03:30:22.790Z,5.40
2022-11-26T03:32:52.498Z,5.80
2022-11-26T03:35:21.087Z,4.63
2022-11-26T03:37:49.255Z,4.93
2022-11-26T03:40:17.823Z,4.80
2022-11-26T03:42:46.603Z,5.37
2022-11-26T03:45:14.999Z,4.60
2022-11-26T03:47:43.119Z,4.57
2022-11-26T03:50:13.269Z,4.30
2022-11-26T03:52:41.513Z,4.20
2022-11-26T03:55:10.532Z,4.73
2022-11-26T03:57:38.667Z,4.73
2022-11-26T04:00:08.867Z,4.80
2022-11-26T04:02:37.385Z,5.13
2022-11-26T04:05:06.260Z,4.93
2022-11-26T04:07:35.776Z,4.57
2022-11-26T04:10:04.130Z,5.70
2022-11-26T04:12:32.231Z,5.50
2022-11-26T04:15:00.375Z,4.80
2022-11-26T04:17:28.681Z,5.43
2022-11-26T04:19:56.798Z,6.50
2022-11-26T04:22:25.175Z,5.53
2022-11-26T04:24:54.760Z,5.03
2022-11-26T04:27:22.926Z,4.90
2022-11-26T04:29:51.133Z,6.00
2022-11-26T04:32:19.327Z,6.03
2022-11-26T04:34:47.710Z,5.30
2022-11-26T04:37:15.978Z,6.73
2022-11-26T04:39:44.110Z,5.40
2022-11-26T04:42:13.621Z,5.43
2022-11-26T04:44:41.729Z,5.53
2022-11-26T04:47:09.932Z,5.73
2022-11-26T04:49:38.282Z,6.03
2022-11-26T04:52:06.647Z,5.23
2022-11-26T04:54:34.843Z,4.63
2022-11-26T04:57:03.090Z,5.60
2022-11-26T04:59:32.918Z,5.70
2022-11-26T05:02:01.041Z,5.23
2022-11-26T05:04:29.674Z,5.30
2022-11-26T05:06:58.567Z,6.03
2022-11-26T05:09:27.180Z,5.00
2022-11-26T05:11:55.241Z,5.17
2022-11-26T05:14:23.812Z,4.90
2022-11-26T05:16:53.303Z,6.17
2022-11-26T05:19:21.583Z,5.37
2022-11-26T05:21:49.570Z,4.53
2022-11-26T05:24:17.739Z,5.23
2022-11-26T05:26:45.837Z,4.97
2022-11-26T05:29:14.010Z,4.90
2022-11-26T05:31:42.082Z,3.90
2022-11-26T05:34:11.675Z,5.00
2022-11-26T05:36:39.868Z,4.73
2022-11-26T05:39:09.467Z,5.23
2022-11-26T05:41:37.611Z,3.37
2022-11-26T05:44:06.085Z,5.13
2022-11-26T05:46:34.477Z,4.13
2022-11-26T05:49:02.682Z,5.10
2022-11-26T05:51:32.129Z,4.23
2022-11-26T05:54:00.246Z,4.33
2022-11-26T05:56:28.482Z,5.27
2022-11-26T05:58:56.678Z,4.17
2022-11-26T06:01:24.909Z,4.30
2022-11-26T06:03:53.387Z,4.40
2022-11-26T06:06:21.862Z,4.53
2022-11-26T06:08:52.106Z,4.37
2022-11-26T06:11:20.508Z,4.53
2022-11-26T06:13:48.831Z,4.70
2022-11-26T06:16:17.143Z,4.87
2022-11-26T06:18:45.393Z,5.37
2022-11-26T06:21:13.962Z,5.10
2022-11-26T06:23:49.628Z,4.00
2022-11-26T06:26:22.544Z,4.17
2022-11-26T06:28:50.848Z,4.17
2022-11-26T06:31:19.153Z,4.97
2022-11-26T06:33:47.646Z,4.70
2022-11-26T06:36:15.918Z,5.40
2022-11-26T06:38:44.115Z,5.17
2022-11-26T06:41:12.243Z,4.80
2022-11-26T06:43:41.807Z,3.83
2022-11-26T06:46:11.876Z,4.47
2022-11-26T06:48:40.662Z,3.80
2022-11-26T06:51:15.805Z,3.43
2022-11-26T06:53:54.150Z,3.77
2022-11-26T06:56:29.924Z,4.13
2022-11-26T06:59:15.452Z,3.90
2022-11-26T07:01:44.601Z,4.03
2022-11-26T07:04:17.343Z,3.97
2022-11-26T07:06:55.854Z,3.80
2022-11-26T07:09:26.670Z,4.73
2022-11-26T07:11:54.795Z,3.80
2022-11-26T07:14:24.972Z,4.57
2022-11-26T07:16:53.884Z,4.23
2022-11-26T07:19:22.191Z,4.00
2022-11-26T07:21:50.740Z,3.00
2022-11-26T07:24:18.946Z,3.17
2022-11-26T07:26:47.323Z,3.40
2022-11-26T07:29:15.460Z,3.60
2022-11-26T07:31:45.201Z,4.37
2022-11-26T07:34:13.623Z,3.40
2022-11-26T07:36:43.542Z,3.50
2022-11-26T07:39:12.891Z,3.53
2022-11-26T07:41:41.085Z,3.43
2022-11-26T07:44:13.013Z,4.00
2022-11-26T07:46:41.257Z,3.03
2022-11-26T07:49:11.416Z,4.10
2022-11-26T07:51:39.874Z,3.83
2022-11-26T07:54:09.257Z,3.23
2022-11-26T07:56:37.638Z,3.53
2022-11-26T07:59:05.921Z,3.00
2022-11-26T08:01:34.865Z,4.27
2022-11-26T08:04:08.418Z,4.10
2022-11-26T08:06:39.224Z,4.27
2022-11-26T08:09:07.674Z,4.07
2022-11-26T08:11:35.767Z,4.07
2022-11-26T08:14:05.670Z,3.90
2022-11-26T08:16:34.301Z,3.60
2022-11-26T08:19:04.790Z,4.20
2022-11-26T08:21:33.364Z,3.90
2022-11-26T08:24:03.755Z,4.00
2022-11-26T08:26:37.225Z,4.90
2022-11-26T08:29:07.243Z,5.97
2022-11-26T08:31:38.852Z,6.23
2022-11-26T08:34:09.846Z,6.00
2022-11-26T08:36:37.854Z,5.17
2022-11-26T08:39:07.344Z,6.10
2022-11-26T08:41:35.479Z,5.10
2022-11-26T08:44:06.526Z,4.70
2022-11-26T08:46:35.034Z,5.00
2022-11-26T08:49:03.111Z,3.57
2022-11-26T08:51:31.396Z,3.63
2022-11-26T08:53:59.478Z,4.90
2022-11-26T08:56:29.360Z,3.90
2022-11-26T08:58:57.774Z,4.07
2022-11-26T09:01:27.767Z,3.70
2022-11-26T09:03:57.970Z,3.90
2022-11-26T09:06:34.348Z,4.87
2022-11-26T09:09:15.018Z,5.07
2022-11-26T09:11:48.153Z,4.20
2022-11-26T09:14:18.326Z,4.70
2022-11-26T09:16:46.733Z,5.27
2022-11-26T09:19:15.805Z,4.77
2022-11-26T09:21:44.273Z,4.57
2022-11-26T09:24:12.748Z,4.40
2022-11-26T09:26:40.824Z,4.20
2022-11-26T09:29:13.581Z,4.47
2022-11-26T09:32:00.846Z,4.70
2022-11-26T09:34:30.155Z,5.20
2022-11-26T09:36:58.388Z,4.90
2022-11-26T09:39:26.823Z,4.00
2022-11-26T09:41:59.782Z,4.07
2022-11-26T09:44:39.319Z,4.40
2022-11-26T09:47:13.530Z,4.20
2022-11-26T09:49:50.253Z,4.03
2022-11-26T09:52:20.317Z,4.67
2022-11-26T09:54:49.784Z,4.70
2022-11-26T09:57:27.637Z,4.27
2022-11-26T09:59:58.432Z,4.70
2022-11-26T10:02:26.937Z,4.80
2022-11-26T10:04:55.193Z,3.57
2022-11-26T10:07:45.112Z,3.60
2022-11-26T10:10:19.359Z,4.30
2022-11-26T10:13:17.808Z,4.70
2022-11-26T10:15:54.260Z,4.37
2022-11-26T10:18:30.720Z,4.43
2022-11-26T10:21:09.012Z,5.40
2022-11-26T10:23:45.635Z,5.50
2022-11-26T10:26:20.562Z,3.57
2022-11-26T10:28:52.470Z,5.00
2022-11-26T10:31:24.736Z,4.10
2022-11-26T10:33:59.418Z,4.70
2022-11-26T10:36:29.626Z,3.40
2022-11-26T10:38:57.944Z,4.53
2022-11-26T10:41:29.435Z,3.90
2022-11-26T10:43:57.854Z,4.87
2022-11-26T10:46:36.031Z,4.53
2022-11-26T10:49:20.923Z,4.07
2022-11-26T10:51:50.519Z,4.20
2022-11-26T10:54:31.347Z,3.83
2022-11-26T10:57:05.975Z,3.67
2022-11-26T10:59:40.671Z,3.00
2022-11-26T11:02:29.093Z,4.37
2022-11-26T11:05:00.779Z,3.97
2022-11-26T11:07:44.404Z,3.50
2022-11-26T11:10:19.281Z,4.10
2022-11-26T11:12:50.359Z,3.50
2022-11-26T11:15:26.658Z,3.53
2022-11-26T11:17:59.751Z,3.73
2022-11-26T11:20:33.539Z,4.37
2022-11-26T11:23:08.674Z,3.70
2022-11-26T11:25:39.526Z,3.80
2022-11-26T11:28:12.740Z,4.60
2022-11-26T11:30:44.061Z,4.50
2022-11-26T11:33:21.346Z,3.73
2022-11-26T11:36:00.952Z,3.93
2022-11-26T11:38:31.157Z,4.23
2022-11-26T11:41:00.066Z,3.87
2022-11-26T11:43:29.080Z,3.40
2022-11-26T11:46:15.533Z,4.53
2022-11-26T11:48:54.667Z,4.00
2022-11-26T11:51:29.591Z,3.43
2022-11-26T11:54:05.797Z,3.60
2022-11-26T11:56:38.343Z,3.20
2022-11-26T11:59:37.467Z,3.90
2022-11-26T12:02:23.823Z,3.40
2022-11-26T12:05:05.951Z,3.83
2022-11-26T12:07:39.416Z,3.80
2022-11-26T12:10:15.354Z,3.63
2022-11-26T12:12:50.147Z,3.93
2022-11-26T12:15:25.180Z,3.27
2022-11-26T12:17:58.662Z,4.23
2022-11-26T12:20:33.644Z,4.60
2022-11-26T12:23:14.518Z,4.17
2022-11-26T12:25:47.322Z,4.10
2022-11-26T12:28:18.220Z,4.13
2022-11-26T12:30:51.717Z,3.80
2022-11-26T12:33:24.164Z,3.70
2022-11-26T12:35:55.104Z,3.30
2022-11-26T12:38:26.311Z,3.70
2022-11-26T12:41:01.085Z,3.60
2022-11-26T12:43:33.042Z,2.60
2022-11-26T12:46:04.768Z,3.70
2022-11-26T12:48:43.009Z,4.10
2022-11-26T12:51:23.055Z,4.50
2022-11-26T12:53:54.614Z,4.90
2022-11-26T12:56:25.134Z,5.10
2022-11-26T12:59:03.596Z,5.10
2022-11-26T13:01:32.882Z,4.70
2022-11-26T13:04:36.253Z,5.90
2022-11-26T13:07:09.799Z,2.80
2022-11-26T13:09:57.091Z,2.67
2022-11-26T13:12:33.418Z,4.00
2022-11-26T13:15:07.273Z,3.73
2022-11-26T13:17:43.456Z,3.73
2022-11-26T13:20:36.309Z,3.80
2022-11-26T13:23:17.945Z,3.40
2022-11-26T13:26:07.357Z,2.33
2022-11-26T13:28:49.844Z,2.30
2022-11-26T13:31:29.856Z,2.33
2022-11-26T13:34:17.463Z,4.60
2022-11-26T13:37:12.301Z,2.97
2022-11-26T13:40:02.103Z,5.27
2022-11-26T13:43:17.120Z,6.93
2022-11-26T13:46:02.469Z,7.10
2022-11-26T13:48:39.453Z,3.57
2022-11-26T13:51:11.206Z,2.47
2022-11-26T13:53:43.936Z,2.67
2022-11-26T13:56:14.045Z,3.10
2022-11-26T13:58:45.606Z,2.23
2022-11-26T14:01:33.194Z,2.00
2022-11-26T14:04:03.685Z,3.77
2022-11-26T14:06:33.596Z,1.73
2022-11-26T14:09:02.552Z,1.70
2022-11-26T14:12:02.967Z,2.20
2022-11-26T14:14:33.004Z,2.97
2022-11-26T14:17:19.271Z,2.30
2022-11-26T14:20:11.566Z,2.70
2022-11-26T14:22:40.215Z,2.47
2022-11-26T14:25:11.856Z,6.10
2022-11-26T14:27:45.581Z,2.87
2022-11-26T14:30:28.725Z,2.07
2022-11-26T14:33:07.488Z,2.67
2022-11-26T14:35:38.723Z,2.93
2022-11-26T14:38:21.568Z,2.43
2022-11-26T14:40:57.965Z,3.20
2022-11-26T14:43:31.453Z,3.70
2022-11-26T14:46:12.718Z,2.70
2022-11-26T14:48:44.921Z,4.23
2022-11-26T14:51:15.815Z,3.57
2022-11-26T14:53:48.313Z,2.57
2022-11-26T14:56:18.510Z,2.20
2022-11-26T14:58:50.511Z,3.50
2022-11-26T15:01:21.105Z,5.93
2022-11-26T15:04:01.635Z,5.30
2022-11-26T15:06:38.481Z,4.43
2022-11-26T15:09:19.052Z,2.70
2022-11-26T15:11:50.326Z,5.60
2022-11-26T15:14:24.664Z,2.40
2022-11-26T15:17:00.643Z,1.80
2022-11-26T15:19:32.293Z,1.63
2022-11-26T15:22:01.716Z,1.57
2022-11-26T15:24:32.218Z,2.33
2022-11-26T15:27:00.894Z,1.93
2022-11-26T15:29:33.529Z,2.80
2022-11-26T15:32:02.885Z,3.63
2022-11-26T15:34:33.741Z,7.03
2022-11-26T15:37:02.097Z,8.60
2022-11-26T15:39:35.126Z,11.70
2022-11-26T15:42:06.641Z,8.20
2022-11-26T15:44:42.538Z,6.13
2022-11-26T15:47:14.989Z,3.33
2022-11-26T15:49:45.618Z,2.63
2022-11-26T15:52:15.150Z,2.13
2022-11-26T15:57:43.850Z,10.53
2022-11-26T16:00:22.183Z,12.07
2022-11-26T16:02:52.777Z,12.00
2022-11-26T16:05:29.004Z,10.60
2022-11-26T16:07:59.779Z,7.27
2022-11-26T16:10:31.207Z,5.37
2022-11-26T16:13:20.640Z,3.43
2022-11-26T16:15:52.849Z,2.93
2022-11-26T16:18:24.112Z,2.30
2022-11-26T16:21:03.600Z,1.90
2022-11-26T16:23:32.723Z,2.43
2022-11-26T16:26:13.090Z,1.80
2022-11-26T16:28:41.270Z,1.93
2022-11-26T16:31:10.910Z,1.83
2022-11-26T16:33:40.904Z,1.80
2022-11-26T16:36:23.111Z,1.77
2022-11-26T16:38:52.379Z,2.37
2022-11-26T16:41:23.460Z,1.87
2022-11-26T16:43:52.267Z,1.90
2022-11-26T16:46:24.704Z,1.83
2022-11-26T16:48:53.507Z,1.50
2022-11-26T16:51:22.586Z,2.57
2022-11-26T16:53:51.065Z,2.87
2022-11-26T16:56:22.202Z,4.23
2022-11-26T16:58:51.813Z,4.47
2022-11-26T17:01:22.267Z,4.60
2022-11-26T17:03:51.558Z,4.33
2022-11-26T17:06:29.017Z,3.90
2022-11-26T17:08:58.757Z,3.00
2022-11-26T17:11:32.329Z,2.37
2022-11-26T17:14:00.820Z,2.20
2022-11-26T17:16:30.775Z,2.50
2022-11-26T17:19:02.404Z,2.50
2022-11-26T17:21:30.686Z,2.07
2022-11-26T17:24:02.558Z,1.87
2022-11-26T17:26:32.491Z,2.50
2022-11-26T17:29:02.184Z,2.37
2022-11-26T17:31:33.007Z,2.20
2022-11-26T17:34:02.113Z,2.40
2022-11-26T17:36:36.453Z,2.30
2022-11-26T17:39:06.619Z,1.70
2022-11-26T17:41:36.226Z,2.27
2022-11-26T17:44:05.828Z,1.73
2022-11-26T17:46:54.433Z,2.50
2022-11-26T17:49:27.927Z,3.60
2022-11-26T17:51:57.895Z,2.63
2022-11-26T17:54:29.050Z,2.67
2022-11-26T17:56:59.355Z,3.27
2022-11-26T17:59:31.534Z,4.50
2022-11-26T18:02:04.201Z,4.73
2022-11-26T18:04:34.233Z,4.33
2022-11-26T18:11:15.048Z,4.03
2022-11-26T18:13:46.409Z,2.93
2022-11-26T18:20:48.267Z,4.10
2022-11-26T18:23:17.362Z,2.70
2022-11-26T18:25:48.180Z,2.80
2022-11-26T18:28:18.215Z,3.33
2022-11-26T18:30:48.994Z,2.30
2022-11-26T18:33:18.861Z,3.00
2022-11-26T18:35:53.104Z,2.90
2022-11-26T18:38:22.485Z,2.60
2022-11-26T18:41:02.636Z,3.23
2022-11-26T18:43:34.907Z,4.50
2022-11-26T18:46:05.561Z,5.70
2022-11-26T18:48:37.713Z,5.03
2022-11-26T18:51:08.857Z,6.10
2022-11-26T18:53:39.805Z,5.37
2022-11-26T18:56:12.097Z,4.80
2022-11-26T18:58:42.588Z,5.00
2022-11-26T19:01:16.892Z,4.27
2022-11-26T19:03:47.233Z,3.60
2022-11-26T19:06:34.560Z,3.30
2022-11-26T19:09:08.687Z,5.60
2022-11-26T19:11:40.049Z,4.43
2022-11-26T19:14:15.572Z,4.80
2022-11-26T19:16:45.968Z,4.50
2022-11-26T19:19:17.352Z,5.33
2022-11-26T19:21:50.136Z,3.93
2022-11-26T19:24:20.765Z,3.30
2022-11-26T19:26:53.638Z,3.20
2022-11-26T19:29:23.874Z,3.33
2022-11-26T19:31:53.888Z,3.83
2022-11-26T19:34:26.760Z,4.23
2022-11-26T19:36:59.811Z,3.90
2022-11-26T19:39:33.255Z,9.53
2022-11-26T19:42:03.767Z,10.60
2022-11-26T19:44:34.612Z,10.60
2022-11-26T19:47:04.438Z,9.53
2022-11-26T19:49:35.413Z,9.57
2022-11-26T19:52:08.770Z,7.67
2022-11-26T19:54:38.785Z,13.90
2022-11-26T19:57:08.999Z,13.47
2022-11-26T19:59:40.813Z,13.83
2022-11-26T20:02:13.168Z,12.40
2022-11-26T20:04:42.641Z,12.70
2022-11-26T20:07:13.292Z,9.83
2022-11-26T20:09:43.697Z,11.37
2022-11-26T20:12:13.844Z,17.97
2022-11-26T20:14:45.064Z,16.83
2022-11-26T20:17:16.464Z,11.97
2022-11-26T20:19:46.220Z,9.13
2022-11-26T20:22:18.210Z,8.10
2022-11-26T20:24:48.406Z,6.00
2022-11-26T20:27:18.427Z,7.80
2022-11-26T20:29:50.836Z,10.00
2022-11-26T20:32:20.506Z,37.90
2022-11-26T20:34:51.125Z,19.70
2022-11-26T20:37:23.618Z,11.03
2022-11-26T20:39:54.502Z,6.20
2022-11-26T20:42:23.957Z,6.13
2022-11-26T20:44:53.769Z,6.03
2022-11-26T20:47:24.913Z,4.73
2022-11-26T20:54:08.474Z,3.57
2022-11-26T20:56:37.975Z,4.63
2022-11-26T20:59:09.856Z,5.90
2022-11-26T21:01:39.291Z,6.67
2022-11-26T21:04:10.193Z,6.67
2022-11-26T21:06:41.497Z,5.83
2022-11-26T21:09:18.648Z,5.27
2022-11-26T21:11:52.028Z,4.47
2022-11-26T21:14:22.748Z,4.10
2022-11-26T21:16:53.850Z,4.80
2022-11-26T21:19:23.661Z,13.17
2022-11-26T21:21:54.548Z,16.10
2022-11-26T21:24:28.173Z,18.03
2022-11-26T21:26:57.754Z,20.00
2022-11-26T21:29:27.256Z,19.97
2022-11-26T21:31:57.066Z,13.63
2022-11-26T21:34:27.858Z,9.47
2022-11-26T21:36:57.199Z,4.63
2022-11-26T21:39:30.393Z,4.07
2022-11-26T21:42:00.306Z,2.70
2022-11-26T21:44:31.745Z,3.80
2022-11-26T21:47:03.096Z,3.37
2022-11-26T21:49:34.896Z,3.07
2022-11-26T21:52:07.135Z,2.90
2022-11-26T21:54:38.346Z,2.47
2022-11-26T21:57:10.140Z,3.20
2022-11-26T21:59:39.955Z,3.00
2022-11-26T22:02:10.201Z,3.07
2022-11-26T22:04:41.098Z,3.30
2022-11-26T22:07:10.955Z,2.60
2022-11-26T22:09:43.813Z,3.67
2022-11-26T22:12:29.236Z,3.47
2022-11-26T22:15:13.746Z,2.87
2022-11-26T22:17:43.260Z,2.30
2022-11-26T22:20:15.374Z,3.37
2022-11-26T22:22:44.820Z,2.53
2022-11-26T22:25:15.252Z,2.63
2022-11-26T22:27:45.153Z,3.20
2022-11-26T22:30:16.413Z,2.30
2022-11-26T22:32:45.812Z,2.83
2022-11-26T22:35:14.808Z,3.30
2022-11-26T22:37:44.224Z,3.30
2022-11-26T22:40:15.767Z,2.90
2022-11-26T22:42:45.162Z,3.10
2022-11-26T22:45:14.258Z,2.80
2022-11-26T22:47:43.568Z,3.33
2022-11-26T22:50:13.382Z,3.87
2022-11-26T22:52:44.731Z,4.33
2022-11-26T22:55:17.098Z,4.30
2022-11-26T22:57:47.520Z,4.13
2022-11-26T23:00:46.833Z,3.30
2022-11-26T23:03:17.762Z,3.33
2022-11-26T23:05:47.781Z,3.20
2022-11-26T23:08:19.540Z,3.40
2022-11-26T23:10:50.893Z,3.37
2022-11-26T23:13:21.213Z,3.40
2022-11-26T23:15:50.455Z,2.80
2022-11-26T23:18:20.077Z,2.93
2022-11-26T23:20:49.331Z,3.00
2022-11-26T23:23:18.719Z,2.90
2022-11-26T23:25:49.454Z,2.73
2022-11-26T23:28:18.652Z,3.10
2022-11-26T23:30:48.264Z,2.60
2022-11-26T23:33:17.461Z,3.27
2022-11-26T23:35:46.658Z,2.90
2022-11-26T23:38:16.487Z,3.20
2022-11-26T23:40:45.872Z,2.80
2022-11-26T23:43:17.324Z,3.03
2022-11-26T23:45:47.106Z,2.87
2022-11-26T23:48:17.424Z,2.03
2022-11-26T23:50:48.042Z,2.20
2022-11-26T23:53:19.651Z,2.60
2022-11-26T23:55:49.653Z,3.10
2022-11-26T23:58:23.775Z,3.63
